KPOC/POC METAR and TAF weather

Enter ICAO airport designator
Station Type Date Time Source
KPOC METAR 2022/05/26 03:47 UTC NOAA

KPOC 260347Z 24005KT 10SM CLR 17/14 A2994 RMK LAST


Station Type Date Time Source
KPOC Decoded METAR 2022/05/26 03:47 UTC NOAA

La Verne / Brackett, CA, United States (KPOC) 34-06N 117-47W
May 25, 2022 - 11:47 PM EDT / 2022.05.26 0347 UTC
Wind: from the WSW (240 degrees) at 6 MPH (5 KT):0
Visibility: 10 mile(s):0
Sky conditions: clear
Temperature: 62 F (17 C)
Dew Point: 57 F (14 C)
Relative Humidity: 82%
Pressure (altimeter): 29.94 in. Hg (1013 hPa)
ob: KPOC 260347Z 24005KT 10SM CLR 17/14 A2994 RMK LAST
cycle: 4

Station Type Date Time Source
KPOC TAF UTC NOAA

Error!

Example: see airport list